createdAt,value
2019-03-18T00:00:32.391Z,7.50
2019-03-18T00:03:00.349Z,7.60
2019-03-18T00:05:28.106Z,7.70
2019-03-18T00:07:55.897Z,7.70
2019-03-18T00:10:23.848Z,7.80
2019-03-18T00:12:52.206Z,7.70
2019-03-18T00:15:20.181Z,7.70
2019-03-18T00:17:48.024Z,7.90
2019-03-18T00:20:15.722Z,8.00
2019-03-18T00:22:43.361Z,7.90
2019-03-18T00:25:11.100Z,7.90
2019-03-18T00:27:38.653Z,7.80
2019-03-18T00:30:07.949Z,7.70
2019-03-18T00:32:35.652Z,7.70
2019-03-18T00:35:03.889Z,7.60
2019-03-18T00:37:31.573Z,7.60
2019-03-18T00:39:59.360Z,7.70
2019-03-18T00:42:27.047Z,7.60
2019-03-18T00:44:54.704Z,7.40
2019-03-18T00:47:22.409Z,7.30
2019-03-18T00:49:50.056Z,7.20
2019-03-18T00:52:17.693Z,7.30
2019-03-18T00:54:45.361Z,7.20
2019-03-18T00:57:13.042Z,7.30
2019-03-18T00:59:40.836Z,7.20
2019-03-18T01:02:10.294Z,7.10
2019-03-18T01:04:37.974Z,7.10
2019-03-18T01:07:05.662Z,7.00
2019-03-18T01:09:33.362Z,6.90
2019-03-18T01:12:01.351Z,7.00
2019-03-18T01:14:29.168Z,6.90
2019-03-18T01:16:56.829Z,6.90
2019-03-18T01:19:25.602Z,7.00
2019-03-18T01:21:53.338Z,7.10
2019-03-18T01:24:21.037Z,6.90
2019-03-18T01:26:48.735Z,7.00
2019-03-18T01:29:16.450Z,6.90
2019-03-18T01:31:44.137Z,6.80
2019-03-18T01:34:11.806Z,6.70
2019-03-18T01:36:41.550Z,6.70
2019-03-18T01:39:09.237Z,6.70
2019-03-18T01:41:36.899Z,6.80
2019-03-18T01:44:04.600Z,6.90
2019-03-18T01:46:32.323Z,6.90
2019-03-18T01:48:59.982Z,7.00
2019-03-18T01:51:27.661Z,7.00
2019-03-18T01:53:55.325Z,7.10
2019-03-18T01:56:22.989Z,7.00
2019-03-18T01:58:50.771Z,7.00
2019-03-18T02:01:18.565Z,7.20
2019-03-18T02:03:47.370Z,7.30
2019-03-18T02:06:15.198Z,7.10
2019-03-18T02:08:43.075Z,7.10
2019-03-18T02:11:10.727Z,7.10
2019-03-18T02:13:38.384Z,6.90
2019-03-18T02:16:06.133Z,6.80
2019-03-18T02:18:33.835Z,6.90
2019-03-18T02:21:01.533Z,6.90
2019-03-18T02:23:29.401Z,7.00
2019-03-18T02:25:57.160Z,7.00
2019-03-18T02:28:24.827Z,6.90
2019-03-18T02:30:52.509Z,6.90
2019-03-18T02:33:20.159Z,7.00
2019-03-18T02:35:49.691Z,7.00
2019-03-18T02:38:17.343Z,7.00
2019-03-18T02:40:45.141Z,6.90
2019-03-18T02:43:12.824Z,6.70
2019-03-18T02:45:40.494Z,6.80
2019-03-18T02:48:09.426Z,6.70
2019-03-18T02:50:37.106Z,6.40
2019-03-18T02:53:04.755Z,6.40
2019-03-18T02:55:32.430Z,6.40
2019-03-18T02:58:00.092Z,6.40
2019-03-18T03:00:28.717Z,6.30
2019-03-18T03:02:56.629Z,6.20
2019-03-18T03:05:24.414Z,6.40
2019-03-18T03:07:52.093Z,6.50
2019-03-18T03:10:20.845Z,6.50
2019-03-18T03:12:48.533Z,6.50
2019-03-18T03:15:16.156Z,6.50
2019-03-18T03:17:43.825Z,6.60
2019-03-18T03:20:11.577Z,6.80
2019-03-18T03:22:39.231Z,6.80
2019-03-18T03:25:07.052Z,7.00
2019-03-18T03:27:34.710Z,7.00
2019-03-18T03:30:02.635Z,6.90
2019-03-18T03:32:30.416Z,6.90
2019-03-18T03:34:58.090Z,7.00
2019-03-18T03:37:25.817Z,7.00
2019-03-18T03:39:53.515Z,6.90
2019-03-18T03:42:21.158Z,6.90
2019-03-18T03:44:48.847Z,6.90
2019-03-18T03:47:16.477Z,7.00
2019-03-18T03:49:44.154Z,7.00
2019-03-18T03:52:11.777Z,7.10
2019-03-18T03:54:39.512Z,7.00
2019-03-18T03:57:07.461Z,7.00
2019-03-18T03:59:35.697Z,6.90
2019-03-18T04:02:03.363Z,6.90
2019-03-18T04:04:31.075Z,6.80
2019-03-18T04:06:58.940Z,6.90
2019-03-18T04:09:26.905Z,6.80
2019-03-18T04:11:55.696Z,6.80
2019-03-18T04:14:24.471Z,6.80
2019-03-18T04:17:01.926Z,6.70
2019-03-18T04:19:21.682Z,6.60
2019-03-18T04:21:50.924Z,6.40
2019-03-18T04:24:18.851Z,6.40
2019-03-18T04:26:48.376Z,6.20
2019-03-18T04:29:16.051Z,6.10
2019-03-18T04:31:43.762Z,6.20
2019-03-18T04:34:11.713Z,6.20
2019-03-18T04:36:39.370Z,6.30
2019-03-18T04:39:07.432Z,6.40
2019-03-18T04:41:35.175Z,6.20
2019-03-18T04:44:02.862Z,6.20
2019-03-18T04:46:30.585Z,6.20
2019-03-18T04:48:58.304Z,6.20
2019-03-18T04:51:27.205Z,6.20
2019-03-18T04:53:54.860Z,6.20
2019-03-18T04:56:22.566Z,6.10
2019-03-18T04:58:50.250Z,6.10
2019-03-18T05:01:17.954Z,6.00
2019-03-18T05:03:45.668Z,6.10
2019-03-18T05:06:13.313Z,6.00
2019-03-18T05:08:41.000Z,5.90
2019-03-18T05:11:08.710Z,5.80
2019-03-18T05:13:36.431Z,5.90
2019-03-18T05:16:04.226Z,5.90
2019-03-18T05:18:32.009Z,5.90
2019-03-18T05:21:00.770Z,5.90
2019-03-18T05:23:28.445Z,5.90
2019-03-18T05:25:56.145Z,5.80
2019-03-18T05:28:24.921Z,5.80
2019-03-18T05:30:52.553Z,5.80
2019-03-18T05:33:20.474Z,6.00
2019-03-18T05:35:48.154Z,6.00
2019-03-18T05:38:15.805Z,6.00
2019-03-18T05:40:43.521Z,5.90
2019-03-18T05:43:11.168Z,5.90
2019-03-18T05:45:39.929Z,5.80
2019-03-18T05:48:07.621Z,6.00
2019-03-18T05:50:35.328Z,5.90
2019-03-18T05:53:02.990Z,5.90
2019-03-18T05:55:30.692Z,6.00
2019-03-18T05:57:59.473Z,5.90
2019-03-18T06:00:27.227Z,6.00
2019-03-18T06:02:56.013Z,6.20
2019-03-18T06:05:23.702Z,6.30
2019-03-18T06:07:51.416Z,6.20
2019-03-18T06:10:19.150Z,6.30
2019-03-18T06:12:46.810Z,6.40
2019-03-18T06:15:14.494Z,6.50
2019-03-18T06:17:51.646Z,6.50
2019-03-18T06:20:11.877Z,6.50
2019-03-18T06:22:39.546Z,6.60
2019-03-18T06:25:07.310Z,6.50
2019-03-18T06:27:34.990Z,6.60
2019-03-18T06:30:02.776Z,6.80
2019-03-18T06:32:30.506Z,6.80
2019-03-18T06:34:58.134Z,6.80
2019-03-18T06:37:25.796Z,6.70
2019-03-18T06:39:53.625Z,6.80
2019-03-18T06:42:21.320Z,6.90
2019-03-18T06:44:48.982Z,7.00
2019-03-18T06:47:16.548Z,7.00
2019-03-18T06:49:44.251Z,7.00
2019-03-18T06:52:11.917Z,6.90
2019-03-18T06:54:39.582Z,7.00
2019-03-18T06:57:07.279Z,7.20
2019-03-18T06:59:35.018Z,7.30
2019-03-18T07:02:02.945Z,7.40
2019-03-18T07:04:30.593Z,7.30
2019-03-18T07:06:58.266Z,7.30
2019-03-18T07:09:25.953Z,7.20
2019-03-18T07:11:53.625Z,7.20
2019-03-18T07:14:21.286Z,7.20
2019-03-18T07:16:48.986Z,7.10
2019-03-18T07:19:16.668Z,7.00
2019-03-18T07:21:44.374Z,6.90
2019-03-18T07:24:12.030Z,6.90
2019-03-18T07:26:39.730Z,7.00
2019-03-18T07:29:07.398Z,7.10
2019-03-18T07:31:35.932Z,7.20
2019-03-18T07:34:03.625Z,7.30
2019-03-18T07:36:31.306Z,7.20
2019-03-18T07:38:59.106Z,7.10
2019-03-18T07:41:26.812Z,7.00
2019-03-18T07:43:54.477Z,7.00
2019-03-18T07:46:22.147Z,6.90
2019-03-18T07:48:49.834Z,6.90
2019-03-18T07:51:17.557Z,7.00
2019-03-18T07:53:45.199Z,7.10
2019-03-18T07:56:12.933Z,7.10
2019-03-18T07:58:40.606Z,7.10
2019-03-18T08:01:08.276Z,7.00
2019-03-18T08:03:36.787Z,7.00
2019-03-18T08:06:04.613Z,7.00
2019-03-18T08:08:32.334Z,6.90
2019-03-18T08:11:00.065Z,7.00
2019-03-18T08:13:28.081Z,7.00
2019-03-18T08:15:55.729Z,7.00
2019-03-18T08:18:23.449Z,7.00
2019-03-18T08:20:51.112Z,7.00
2019-03-18T08:23:18.776Z,7.20
2019-03-18T08:25:46.659Z,7.30
2019-03-18T08:28:14.462Z,7.40
2019-03-18T08:30:42.250Z,7.30
2019-03-18T08:33:10.086Z,7.30
2019-03-18T08:35:37.753Z,7.50
2019-03-18T08:38:06.723Z,7.60
2019-03-18T08:40:34.583Z,7.70
2019-03-18T08:43:02.389Z,8.00
2019-03-18T08:45:30.033Z,8.10
2019-03-18T08:47:57.729Z,8.20
2019-03-18T08:50:27.224Z,8.50
2019-03-18T08:52:54.927Z,8.60
2019-03-18T08:55:22.810Z,8.80
2019-03-18T08:57:51.135Z,8.60
2019-03-18T09:00:20.550Z,8.60
2019-03-18T09:02:48.272Z,8.40
2019-03-18T09:05:15.963Z,8.40
2019-03-18T09:07:43.649Z,8.50
2019-03-18T09:10:11.425Z,8.60
2019-03-18T09:12:39.145Z,8.70
2019-03-18T09:15:08.423Z,8.80
2019-03-18T09:17:36.197Z,8.90
2019-03-18T09:20:05.450Z,9.10
2019-03-18T09:22:33.181Z,9.30
2019-03-18T09:25:01.164Z,9.00
2019-03-18T09:27:28.890Z,8.90
2019-03-18T09:29:58.403Z,9.10
2019-03-18T09:32:26.049Z,9.20
2019-03-18T09:34:54.860Z,9.20
2019-03-18T09:37:22.703Z,9.20
2019-03-18T09:39:50.330Z,9.30
2019-03-18T09:42:18.238Z,9.30
2019-03-18T09:44:46.049Z,9.40
2019-03-18T09:47:13.733Z,9.50
2019-03-18T09:49:44.286Z,9.40
2019-03-18T09:52:13.878Z,9.40
2019-03-18T09:54:41.597Z,9.50
2019-03-18T09:57:10.603Z,9.40
2019-03-18T09:59:38.270Z,9.40
2019-03-18T10:02:06.072Z,9.50
2019-03-18T10:04:33.745Z,9.40
2019-03-18T10:07:01.418Z,9.20
2019-03-18T10:09:29.101Z,9.30
2019-03-18T10:11:57.975Z,9.30
2019-03-18T10:14:25.699Z,9.50
2019-03-18T10:16:53.365Z,9.60
2019-03-18T10:19:32.746Z,9.60
2019-03-18T10:21:52.521Z,9.80
2019-03-18T10:24:20.214Z,9.70
2019-03-18T10:26:48.999Z,9.60
2019-03-18T10:29:16.693Z,9.70
2019-03-18T10:31:44.413Z,9.90
2019-03-18T10:34:12.439Z,10.10
2019-03-18T10:36:40.116Z,10.20
2019-03-18T10:39:07.944Z,10.20
2019-03-18T10:41:35.861Z,10.20
2019-03-18T10:44:03.532Z,10.20
2019-03-18T10:46:32.349Z,10.30
2019-03-18T10:49:01.788Z,10.30
2019-03-18T10:51:32.064Z,10.00
2019-03-18T10:53:59.977Z,10.00
2019-03-18T10:56:27.654Z,10.00
2019-03-18T10:58:55.440Z,10.20
2019-03-18T11:01:26.039Z,10.10
2019-03-18T11:03:53.737Z,10.10
2019-03-18T11:06:21.543Z,10.20
2019-03-18T11:08:49.246Z,10.20
2019-03-18T11:11:17.021Z,10.20
2019-03-18T11:13:44.729Z,10.20
2019-03-18T11:16:12.413Z,10.50
2019-03-18T11:18:40.073Z,10.50
2019-03-18T11:21:07.790Z,10.60
2019-03-18T11:23:35.571Z,10.70
2019-03-18T11:26:03.345Z,10.60
2019-03-18T11:28:31.015Z,10.70
2019-03-18T11:30:58.708Z,10.80
2019-03-18T11:33:28.451Z,11.10
2019-03-18T11:35:56.256Z,11.30
2019-03-18T11:38:24.349Z,11.40
2019-03-18T11:40:52.121Z,11.40
2019-03-18T11:43:20.132Z,11.00
2019-03-18T11:45:47.790Z,11.10
2019-03-18T11:48:15.462Z,11.00
2019-03-18T11:50:43.185Z,11.10
2019-03-18T11:53:14.473Z,11.00
2019-03-18T11:55:40.596Z,11.00
2019-03-18T11:58:08.286Z,11.10
2019-03-18T12:00:35.944Z,10.90
2019-03-18T12:03:03.699Z,10.90
2019-03-18T12:05:31.423Z,11.20
2019-03-18T12:07:59.181Z,11.20
2019-03-18T12:10:28.013Z,11.40
2019-03-18T12:12:56.273Z,11.50
2019-03-18T12:15:24.100Z,11.20
2019-03-18T12:17:51.821Z,11.10
2019-03-18T12:20:25.498Z,11.10
2019-03-18T12:22:52.149Z,10.90
2019-03-18T12:25:19.849Z,10.80
2019-03-18T12:27:47.523Z,10.80
2019-03-18T12:30:16.298Z,10.60
2019-03-18T12:32:45.251Z,10.70
2019-03-18T12:35:13.269Z,10.80
2019-03-18T12:37:40.969Z,10.90
2019-03-18T12:40:10.232Z,10.80
2019-03-18T12:42:39.866Z,10.60
2019-03-18T12:45:09.190Z,10.60
2019-03-18T12:47:36.863Z,10.40
2019-03-18T12:50:05.935Z,10.20
2019-03-18T12:52:33.632Z,10.20
2019-03-18T12:55:01.318Z,10.20
2019-03-18T12:57:29.305Z,10.30
2019-03-18T12:59:57.013Z,10.40
2019-03-18T13:02:24.710Z,10.30
2019-03-18T13:04:53.486Z,10.20
2019-03-18T13:07:22.354Z,10.20
2019-03-18T13:09:50.144Z,10.00
2019-03-18T13:12:17.854Z,10.20
2019-03-18T13:14:45.493Z,10.50
2019-03-18T13:17:13.797Z,10.40
2019-03-18T13:19:41.456Z,10.30
2019-03-18T13:22:14.603Z,10.30
2019-03-18T13:24:42.305Z,10.10
2019-03-18T13:27:10.335Z,10.00
2019-03-18T13:29:38.081Z,10.00
2019-03-18T13:32:07.370Z,10.10
2019-03-18T13:34:36.187Z,10.20
2019-03-18T13:37:03.919Z,10.20
2019-03-18T13:39:33.491Z,10.60
2019-03-18T13:42:02.305Z,10.70
2019-03-18T13:44:29.973Z,10.70
2019-03-18T13:46:58.778Z,10.80
2019-03-18T13:49:26.455Z,11.00
2019-03-18T13:51:54.325Z,11.10
2019-03-18T13:54:22.179Z,11.20
2019-03-18T13:56:49.876Z,11.20
2019-03-18T13:59:17.576Z,11.30
2019-03-18T14:01:45.237Z,11.20
2019-03-18T14:04:12.962Z,11.10
2019-03-18T14:06:42.469Z,11.00
2019-03-18T14:09:10.185Z,10.90
2019-03-18T14:11:38.113Z,11.00
2019-03-18T14:14:05.894Z,11.40
2019-03-18T14:16:33.673Z,11.70
2019-03-18T14:19:03.269Z,12.00
2019-03-18T14:21:33.498Z,12.00
2019-03-18T14:24:00.707Z,12.00
2019-03-18T14:26:30.620Z,12.10
2019-03-18T14:28:58.408Z,12.20
2019-03-18T14:31:28.064Z,12.30
2019-03-18T14:33:55.731Z,12.40
2019-03-18T14:36:23.412Z,12.40
2019-03-18T14:38:51.225Z,12.50
2019-03-18T14:41:18.984Z,12.30
2019-03-18T14:43:46.789Z,12.50
2019-03-18T14:46:14.649Z,12.60
2019-03-18T14:48:42.626Z,12.40
2019-03-18T14:51:10.285Z,12.40
2019-03-18T14:53:38.152Z,12.40
2019-03-18T14:56:05.864Z,12.60
2019-03-18T14:58:33.581Z,12.80
2019-03-18T15:01:01.650Z,12.60
2019-03-18T15:03:30.554Z,12.50
2019-03-18T15:05:58.412Z,12.50
2019-03-18T15:08:26.062Z,12.40
2019-03-18T15:10:53.965Z,12.30
2019-03-18T15:13:30.249Z,12.20
2019-03-18T15:15:51.178Z,12.30
2019-03-18T15:18:18.853Z,12.40
2019-03-18T15:20:46.498Z,12.50
2019-03-18T15:23:14.166Z,12.40
2019-03-18T15:25:41.906Z,12.40
2019-03-18T15:28:09.571Z,12.20
2019-03-18T15:30:38.330Z,12.30
2019-03-18T15:33:06.134Z,12.20
2019-03-18T15:35:35.106Z,12.10
2019-03-18T15:38:02.809Z,12.20
2019-03-18T15:40:30.657Z,11.90
2019-03-18T15:42:59.537Z,11.10
2019-03-18T15:45:27.247Z,10.70
2019-03-18T15:47:55.130Z,10.30
2019-03-18T15:50:22.818Z,10.00
2019-03-18T15:52:52.337Z,9.90
2019-03-18T15:55:23.972Z,10.00
2019-03-18T15:57:51.493Z,9.90
2019-03-18T16:00:19.160Z,9.70
2019-03-18T16:02:46.916Z,9.70
2019-03-18T16:05:15.566Z,9.60
2019-03-18T16:07:44.624Z,9.50
2019-03-18T16:10:14.611Z,9.60
2019-03-18T16:12:44.163Z,9.70
2019-03-18T16:15:13.754Z,9.70
2019-03-18T16:17:41.889Z,9.70
2019-03-18T16:20:11.538Z,9.90
2019-03-18T16:22:39.245Z,10.00
2019-03-18T16:25:07.159Z,10.30
2019-03-18T16:27:34.870Z,10.70
2019-03-18T16:30:03.996Z,10.80
2019-03-18T16:32:32.627Z,10.90
2019-03-18T16:35:00.397Z,11.00
2019-03-18T16:37:28.249Z,11.20
2019-03-18T16:39:57.085Z,11.30
2019-03-18T16:42:24.809Z,11.50
2019-03-18T16:44:52.656Z,11.50
2019-03-18T16:47:21.418Z,11.70
2019-03-18T16:49:49.111Z,11.70
2019-03-18T16:52:16.801Z,11.70
2019-03-18T16:54:44.476Z,11.70
2019-03-18T16:57:13.916Z,11.70
2019-03-18T16:59:42.661Z,11.60
2019-03-18T17:02:10.345Z,11.40
2019-03-18T17:04:38.376Z,11.40
2019-03-18T17:07:06.170Z,11.30
2019-03-18T17:09:33.991Z,11.10
2019-03-18T17:12:01.684Z,11.00
2019-03-18T17:14:29.428Z,10.90
2019-03-18T17:16:57.257Z,10.90
2019-03-18T17:19:24.958Z,10.90
2019-03-18T17:21:54.467Z,10.90
2019-03-18T17:24:23.958Z,10.90
2019-03-18T17:26:53.564Z,11.00
2019-03-18T17:29:21.492Z,11.00
2019-03-18T17:31:49.190Z,11.10
2019-03-18T17:34:16.892Z,11.10
2019-03-18T17:36:44.604Z,11.20
2019-03-18T17:39:14.797Z,11.40
2019-03-18T17:41:42.722Z,11.20
2019-03-18T17:44:10.394Z,10.90
2019-03-18T17:46:38.106Z,10.70
2019-03-18T17:49:06.881Z,10.30
2019-03-18T17:51:35.694Z,9.80
2019-03-18T17:54:03.432Z,9.40
2019-03-18T17:56:31.186Z,9.30
2019-03-18T17:58:58.996Z,9.30
2019-03-18T18:01:26.774Z,9.40
2019-03-18T18:03:55.560Z,9.40
2019-03-18T18:06:23.285Z,9.50
2019-03-18T18:08:50.973Z,9.40
2019-03-18T18:11:18.645Z,9.30
2019-03-18T18:13:46.394Z,9.20
2019-03-18T18:16:14.168Z,9.20
2019-03-18T18:18:41.857Z,9.20
2019-03-18T18:21:09.508Z,9.20
2019-03-18T18:23:37.219Z,9.50
2019-03-18T18:26:04.873Z,9.50
2019-03-18T18:28:32.577Z,9.40
2019-03-18T18:31:00.244Z,9.50
2019-03-18T18:33:28.048Z,9.50
2019-03-18T18:35:55.797Z,9.60
2019-03-18T18:38:23.496Z,9.60
2019-03-18T18:40:51.225Z,9.70
2019-03-18T18:43:18.956Z,9.50
2019-03-18T18:45:46.642Z,9.40
2019-03-18T18:48:14.343Z,9.30
2019-03-18T18:50:42.024Z,9.20
2019-03-18T18:53:11.417Z,9.10
2019-03-18T18:55:39.106Z,9.10
2019-03-18T18:58:06.755Z,9.10
2019-03-18T19:00:36.236Z,9.00
2019-03-18T19:03:04.085Z,9.00
2019-03-18T19:05:33.699Z,8.90
2019-03-18T19:08:01.373Z,8.80
2019-03-18T19:10:29.119Z,8.70
2019-03-18T19:12:56.797Z,8.70
2019-03-18T19:15:24.480Z,8.70
2019-03-18T19:17:52.477Z,8.70
2019-03-18T19:20:20.151Z,8.80
2019-03-18T19:22:48.057Z,8.80
2019-03-18T19:25:15.858Z,8.80
2019-03-18T19:27:43.570Z,8.80
2019-03-18T19:30:14.768Z,8.80
2019-03-18T19:32:42.597Z,8.80
2019-03-18T19:35:10.509Z,8.70
2019-03-18T19:37:38.507Z,8.70
2019-03-18T19:40:08.208Z,8.70
2019-03-18T19:42:37.654Z,8.70
2019-03-18T19:45:06.692Z,8.70
2019-03-18T19:47:34.486Z,8.70
2019-03-18T19:50:02.438Z,8.70
2019-03-18T19:52:30.227Z,8.60
2019-03-18T19:54:57.873Z,8.60
2019-03-18T19:57:25.558Z,8.50
2019-03-18T19:59:53.248Z,8.40
2019-03-18T20:02:20.929Z,8.30
2019-03-18T20:04:48.589Z,8.20
2019-03-18T20:07:16.441Z,8.20
2019-03-18T20:09:44.113Z,8.20
2019-03-18T20:12:11.794Z,8.00
2019-03-18T20:14:39.485Z,8.00
2019-03-18T20:17:07.162Z,8.00
2019-03-18T20:19:35.010Z,7.90
2019-03-18T20:22:04.463Z,7.90
2019-03-18T20:24:32.372Z,7.80
2019-03-18T20:27:01.398Z,7.70
2019-03-18T20:29:29.062Z,7.80
2019-03-18T20:31:56.876Z,7.80
2019-03-18T20:34:24.545Z,7.70
2019-03-18T20:36:52.474Z,7.40
2019-03-18T20:39:20.448Z,7.30
2019-03-18T20:41:48.211Z,7.30
2019-03-18T20:44:15.916Z,7.30
2019-03-18T20:46:43.598Z,7.40
2019-03-18T20:49:12.594Z,7.40
2019-03-18T20:51:40.384Z,7.50
2019-03-18T20:54:12.251Z,7.50
2019-03-18T20:56:37.854Z,7.50
2019-03-18T20:59:07.498Z,7.60
2019-03-18T21:01:35.161Z,7.50
2019-03-18T21:04:02.966Z,7.50
2019-03-18T21:06:30.638Z,7.60
2019-03-18T21:08:58.393Z,7.60
2019-03-18T21:11:27.980Z,7.70
2019-03-18T21:13:57.632Z,7.60
2019-03-18T21:16:25.457Z,7.50
2019-03-18T21:18:53.218Z,7.40
2019-03-18T21:21:20.972Z,7.50
2019-03-18T21:23:48.785Z,7.50
2019-03-18T21:26:16.449Z,7.50
2019-03-18T21:28:44.228Z,7.50
2019-03-18T21:31:14.801Z,7.40
2019-03-18T21:33:43.669Z,7.40
2019-03-18T21:36:12.330Z,7.40
2019-03-18T21:38:40.051Z,7.50
2019-03-18T21:41:09.576Z,7.50
2019-03-18T21:43:37.197Z,7.70
2019-03-18T21:46:05.209Z,7.70
2019-03-18T21:48:32.857Z,7.70
2019-03-18T21:51:02.360Z,7.80
2019-03-18T21:53:30.074Z,7.70
2019-03-18T21:55:57.714Z,7.60
2019-03-18T21:58:25.401Z,7.50
2019-03-18T22:00:53.200Z,7.40
2019-03-18T22:03:20.973Z,7.20
2019-03-18T22:05:48.725Z,7.20
2019-03-18T22:08:16.476Z,7.20
2019-03-18T22:10:45.998Z,7.20
2019-03-18T22:13:13.660Z,7.20
2019-03-18T22:15:41.294Z,7.20
2019-03-18T22:18:09.036Z,7.20
2019-03-18T22:20:37.757Z,7.10
2019-03-18T22:23:05.661Z,6.90
2019-03-18T22:25:34.694Z,6.80
2019-03-18T22:28:02.867Z,6.80
2019-03-18T22:30:30.565Z,6.80
2019-03-18T22:32:58.235Z,6.70
2019-03-18T22:35:25.918Z,6.70
2019-03-18T22:37:53.625Z,6.80
2019-03-18T22:40:21.313Z,6.90
2019-03-18T22:42:49.028Z,7.00
2019-03-18T22:45:16.692Z,7.00
2019-03-18T22:47:44.385Z,7.10
2019-03-18T22:50:12.226Z,7.00
2019-03-18T22:52:41.019Z,7.10
2019-03-18T22:55:08.790Z,7.10
2019-03-18T22:57:37.159Z,7.00
2019-03-18T23:00:10.189Z,6.90
2019-03-18T23:02:39.877Z,6.80
2019-03-18T23:05:07.544Z,6.90
2019-03-18T23:07:35.241Z,7.00
2019-03-18T23:10:03.154Z,7.10
2019-03-18T23:12:30.785Z,7.00
2019-03-18T23:14:58.557Z,6.90
2019-03-18T23:17:26.222Z,6.90
2019-03-18T23:19:53.917Z,6.90
2019-03-18T23:22:21.658Z,6.90
2019-03-18T23:24:50.400Z,6.90
2019-03-18T23:27:18.163Z,6.80
2019-03-18T23:29:45.841Z,6.70
2019-03-18T23:32:14.589Z,6.60
2019-03-18T23:34:42.281Z,6.60
2019-03-18T23:37:09.946Z,6.40
2019-03-18T23:39:37.637Z,6.60
2019-03-18T23:42:05.281Z,6.60
2019-03-18T23:44:32.901Z,6.60
2019-03-18T23:47:00.679Z,6.50
2019-03-18T23:49:28.361Z,6.40
2019-03-18T23:51:56.001Z,6.40
2019-03-18T23:54:23.717Z,6.50
2019-03-18T23:56:51.358Z,6.40
2019-03-18T23:59:19.010Z,6.40
